createdAt,value
2023-09-12T00:02:18.721Z,99635.16
2023-09-12T00:04:45.604Z,99633.72
2023-09-12T00:07:12.708Z,99637.00
2023-09-12T00:09:39.570Z,99632.81
2023-09-12T00:12:06.823Z,99635.59
2023-09-12T00:14:33.624Z,99629.72
2023-09-12T00:17:00.397Z,99633.84
2023-09-12T00:19:27.164Z,99632.22
2023-09-12T00:21:54.606Z,99628.31
2023-09-12T00:24:21.575Z,99626.94
2023-09-12T00:26:48.523Z,99632.50
2023-09-12T00:29:15.308Z,99629.50
2023-09-12T00:31:42.176Z,99636.19
2023-09-12T00:34:09.049Z,99634.56
2023-09-12T00:36:38.296Z,99631.47
2023-09-12T00:39:05.134Z,99632.81
2023-09-12T00:41:31.926Z,99628.63
2023-09-12T00:43:59.445Z,99635.81
2023-09-12T00:46:27.625Z,99639.63
2023-09-12T00:48:55.314Z,99629.84
2023-09-12T00:51:23.062Z,99631.50
2023-09-12T00:53:50.086Z,99630.66
2023-09-12T00:56:16.967Z,99623.69
2023-09-12T00:58:44.581Z,99628.44
2023-09-12T01:01:11.816Z,99625.94
2023-09-12T01:03:39.395Z,99621.03
2023-09-12T01:06:08.164Z,99624.94
2023-09-12T01:08:38.639Z,99622.53
2023-09-12T01:11:05.534Z,99621.19
2023-09-12T01:13:32.382Z,99606.00
2023-09-12T01:15:59.299Z,99611.00
2023-09-12T01:18:26.318Z,99606.09
2023-09-12T01:21:09.896Z,99608.63
2023-09-12T01:24:05.662Z,99608.41
2023-09-12T01:26:57.186Z,99596.91
2023-09-12T01:29:25.366Z,99598.31
2023-09-12T01:31:53.853Z,99599.78
2023-09-12T01:34:20.728Z,99602.31
2023-09-12T01:36:47.553Z,99604.03
2023-09-12T01:39:14.618Z,99601.38
2023-09-12T01:41:47.004Z,99606.69
2023-09-12T01:44:16.048Z,99603.09
2023-09-12T01:46:44.326Z,99609.16
2023-09-12T01:49:12.261Z,99601.97
2023-09-12T01:51:39.550Z,99607.19
2023-09-12T01:54:08.226Z,99604.13
2023-09-12T01:56:35.771Z,99604.41
2023-09-12T01:59:03.848Z,99600.53
2023-09-12T02:01:30.654Z,99603.50
2023-09-12T02:03:57.522Z,99597.47
2023-09-12T02:06:24.828Z,99606.28
2023-09-12T02:08:51.649Z,99603.50
2023-09-12T02:11:18.462Z,99611.00
2023-09-12T02:13:45.282Z,99611.81
2023-09-12T02:16:12.223Z,99611.81
2023-09-12T02:18:39.101Z,99604.03
2023-09-12T02:21:05.983Z,99606.50
2023-09-12T02:23:32.797Z,99602.59
2023-09-12T02:25:59.662Z,99605.09
2023-09-12T02:28:26.435Z,99603.13
2023-09-12T02:30:53.223Z,99600.38
2023-09-12T02:33:20.176Z,99602.31
2023-09-12T02:35:47.038Z,99598.41
2023-09-12T02:38:15.240Z,99605.31
2023-09-12T02:40:42.050Z,99598.09
2023-09-12T02:43:08.923Z,99602.59
2023-09-12T02:45:35.765Z,99606.28
2023-09-12T02:48:02.784Z,99599.09
2023-09-12T02:50:29.694Z,99605.28
2023-09-12T02:52:56.445Z,99601.13
2023-09-12T02:55:24.483Z,99588.69
2023-09-12T02:57:51.259Z,99589.81
2023-09-12T03:00:18.896Z,99590.13
2023-09-12T03:02:45.847Z,99590.41
2023-09-12T03:05:12.694Z,99586.53
2023-09-12T03:07:39.491Z,99587.13
2023-09-12T03:10:06.651Z,99588.56
2023-09-12T03:12:33.446Z,99595.22
2023-09-12T03:15:00.239Z,99598.63
2023-09-12T03:17:29.155Z,99591.13
2023-09-12T03:19:55.949Z,99594.72
2023-09-12T03:22:22.708Z,99595.53
2023-09-12T03:24:49.500Z,99587.81
2023-09-12T03:27:16.263Z,99593.34
2023-09-12T03:29:43.035Z,99589.47
2023-09-12T03:32:09.845Z,99579.50
2023-09-12T03:34:36.591Z,99589.47
2023-09-12T03:37:03.595Z,99590.31
2023-09-12T03:39:30.494Z,99585.28
2023-09-12T03:41:57.411Z,99590.50
2023-09-12T03:44:24.378Z,99580.78
2023-09-12T03:46:51.119Z,99584.88
2023-09-12T03:49:17.922Z,99586.81
2023-09-12T03:51:44.730Z,99592.09
2023-09-12T03:54:11.571Z,99589.31
2023-09-12T03:56:38.394Z,99593.72
2023-09-12T03:59:05.214Z,99582.03
2023-09-12T04:01:32.069Z,99583.69
2023-09-12T04:04:00.443Z,99587.28
2023-09-12T04:06:29.598Z,99583.69
2023-09-12T04:08:56.419Z,99587.59
2023-09-12T04:11:35.346Z,99581.19
2023-09-12T04:14:06.910Z,99580.38
2023-09-12T04:16:35.022Z,99590.38
2023-09-12T04:19:02.071Z,99581.19
2023-09-12T04:21:28.889Z,99581.50
2023-09-12T04:23:55.679Z,99585.19
2023-09-12T04:26:22.510Z,99583.31
2023-09-12T04:28:49.438Z,99587.72
2023-09-12T04:31:16.283Z,99575.00
2023-09-12T04:33:43.155Z,99571.72
2023-09-12T04:36:10.169Z,99572.53
2023-09-12T04:38:38.451Z,99573.97
2023-09-12T04:41:08.345Z,99575.41
2023-09-12T04:43:35.276Z,99564.09
2023-09-12T04:46:02.240Z,99565.81
2023-09-12T04:48:29.200Z,99576.66
2023-09-12T04:50:56.692Z,99568.06
2023-09-12T04:53:23.650Z,99566.13
2023-09-12T04:55:52.971Z,99565.91
2023-09-12T04:58:19.755Z,99578.63
2023-09-12T05:00:46.833Z,99578.41
2023-09-12T05:03:13.707Z,99588.06
2023-09-12T05:05:40.557Z,99585.28
2023-09-12T05:08:07.363Z,99582.53
2023-09-12T05:10:34.336Z,99579.44
2023-09-12T05:13:01.158Z,99581.69
2023-09-12T05:15:27.944Z,99583.13
2023-09-12T05:17:54.782Z,99584.75
2023-09-12T05:20:21.590Z,99593.06
2023-09-12T05:22:48.363Z,99590.91
2023-09-12T05:25:15.194Z,99583.13
2023-09-12T05:27:41.974Z,99589.72
2023-09-12T05:30:09.134Z,99591.97
2023-09-12T05:32:37.740Z,99590.91
2023-09-12T05:35:19.053Z,99582.84
2023-09-12T05:37:47.999Z,99584.00
2023-09-12T05:40:14.881Z,99587.56
2023-09-12T05:42:41.697Z,99584.81
2023-09-12T05:45:08.860Z,99583.47
2023-09-12T05:47:35.801Z,99585.44
2023-09-12T05:50:05.736Z,99594.84
2023-09-12T05:52:32.517Z,99590.97
2023-09-12T05:54:59.519Z,99588.19
2023-09-12T05:57:26.352Z,99589.28
2023-09-12T05:59:53.197Z,99584.88
2023-09-12T06:02:20.170Z,99590.66
2023-09-12T06:04:47.049Z,99587.88
2023-09-12T06:07:14.018Z,99583.16
2023-09-12T06:09:40.830Z,99581.53
2023-09-12T06:12:07.932Z,99588.41
2023-09-12T06:14:34.787Z,99587.03
2023-09-12T06:17:01.610Z,99595.84
2023-09-12T06:19:28.397Z,99592.56
2023-09-12T06:21:56.886Z,99595.34
2023-09-12T06:24:24.716Z,99600.56
2023-09-12T06:26:51.626Z,99595.25
2023-09-12T06:29:18.864Z,99599.88
2023-09-12T06:31:45.674Z,99601.03
2023-09-12T06:34:12.597Z,99602.88
2023-09-12T06:36:40.163Z,99602.88
2023-09-12T06:39:06.923Z,99605.97
2023-09-12T06:41:33.806Z,99602.34
2023-09-12T06:44:00.751Z,99599.28
2023-09-12T06:46:27.747Z,99604.31
2023-09-12T06:48:54.730Z,99608.44
2023-09-12T06:51:25.861Z,99602.97
2023-09-12T06:53:53.756Z,99607.69
2023-09-12T06:56:20.568Z,99610.97
2023-09-12T06:58:47.365Z,99616.84
2023-09-12T07:01:14.189Z,99610.66
2023-09-12T07:03:41.584Z,99612.34
2023-09-12T07:06:09.538Z,99612.94
2023-09-12T07:08:37.067Z,99613.97
2023-09-12T07:11:07.325Z,99619.53
2023-09-12T07:13:34.434Z,99610.31
2023-09-12T07:16:04.811Z,99613.31
2023-09-12T07:18:35.689Z,99612.09
2023-09-12T07:21:04.693Z,99615.38
2023-09-12T07:23:32.034Z,99616.72
2023-09-12T07:25:59.052Z,99609.22
2023-09-12T07:28:26.707Z,99620.00
2023-09-12T07:30:54.912Z,99615.59
2023-09-12T07:33:22.535Z,99620.84
2023-09-12T07:35:50.182Z,99620.00
2023-09-12T07:38:16.952Z,99624.13
2023-09-12T07:40:43.773Z,99627.44
2023-09-12T07:43:11.385Z,99621.91
2023-09-12T07:45:39.240Z,99630.13
2023-09-12T07:48:12.658Z,99638.47
2023-09-12T07:50:40.101Z,99637.31
2023-09-12T07:53:07.576Z,99635.69
2023-09-12T07:55:46.574Z,99638.81
2023-09-12T07:58:21.421Z,99630.72
2023-09-12T08:00:48.590Z,99633.81
2023-09-12T08:03:16.889Z,99631.56
2023-09-12T08:05:44.187Z,99633.72
2023-09-12T08:08:11.490Z,99641.38
2023-09-12T08:10:38.480Z,99640.47
2023-09-12T08:13:05.247Z,99638.69
2023-09-12T08:15:32.168Z,99647.25
2023-09-12T08:17:58.994Z,99644.09
2023-09-12T08:20:25.921Z,99648.75
2023-09-12T08:22:52.779Z,99649.56
2023-09-12T08:25:19.712Z,99645.97
2023-09-12T08:27:46.683Z,99652.84
2023-09-12T08:30:15.983Z,99656.25
2023-09-12T08:32:45.643Z,99661.25
2023-09-12T08:35:13.963Z,99655.47
2023-09-12T08:37:42.021Z,99658.56
2023-09-12T08:40:11.850Z,99661.84
2023-09-12T08:42:46.647Z,99674.72
2023-09-12T08:45:16.268Z,99666.88
2023-09-12T08:47:50.919Z,99669.56
2023-09-12T08:50:19.966Z,99668.66
2023-09-12T08:52:59.822Z,99672.25
2023-09-12T08:55:36.993Z,99668.34
2023-09-12T08:58:06.096Z,99670.63
2023-09-12T09:00:35.737Z,99671.66
2023-09-12T09:03:04.850Z,99674.34
2023-09-12T09:05:34.304Z,99677.44
2023-09-12T09:08:02.857Z,99677.94
2023-09-12T09:10:42.648Z,99672.09
2023-09-12T09:13:17.120Z,99675.28
2023-09-12T09:15:44.014Z,99671.38
2023-09-12T09:18:12.591Z,99677.09
2023-09-12T09:20:41.184Z,99664.97
2023-09-12T09:23:12.122Z,99672.59
2023-09-12T09:25:44.574Z,99672.94
2023-09-12T09:28:22.251Z,99672.72
2023-09-12T09:30:53.174Z,99665.84
2023-09-12T09:33:21.654Z,99678.28
2023-09-12T09:35:50.252Z,99677.69
2023-09-12T09:38:20.833Z,99675.00
2023-09-12T09:40:48.438Z,99678.28
2023-09-12T09:43:21.712Z,99676.53
2023-09-12T09:45:49.037Z,99679.91
2023-09-12T09:48:23.561Z,99679.09
2023-09-12T09:50:51.082Z,99677.47
2023-09-12T09:53:19.090Z,99675.94
2023-09-12T09:55:46.341Z,99677.47
2023-09-12T09:58:20.451Z,99674.38
2023-09-12T10:00:49.928Z,99676.75
2023-09-12T10:03:20.233Z,99678.38
2023-09-12T10:05:49.782Z,99678.50
2023-09-12T10:08:20.687Z,99679.31
2023-09-12T10:10:49.497Z,99677.25
2023-09-12T10:13:18.004Z,99674.16
2023-09-12T10:15:46.313Z,99678.47
2023-09-12T10:18:29.502Z,99680.25
2023-09-12T10:21:13.284Z,99679.31
2023-09-12T10:23:45.744Z,99677.22
2023-09-12T10:26:14.486Z,99671.13
2023-09-12T10:28:43.357Z,99670.88
2023-09-12T10:31:14.159Z,99674.06
2023-09-12T10:33:42.051Z,99675.22
2023-09-12T10:36:10.941Z,99673.19
2023-09-12T10:38:49.343Z,99677.63
2023-09-12T10:41:17.359Z,99676.41
2023-09-12T10:43:51.137Z,99679.41
2023-09-12T10:46:18.766Z,99676.84
2023-09-12T10:48:46.471Z,99671.28
2023-09-12T10:51:15.146Z,99678.78
2023-09-12T10:53:49.801Z,99678.22
2023-09-12T10:56:22.521Z,99678.94
2023-09-12T10:59:13.917Z,99686.78
2023-09-12T11:01:45.151Z,99691.97
2023-09-12T11:04:21.965Z,99686.31
2023-09-12T11:06:49.348Z,99685.69
2023-09-12T11:09:21.089Z,99691.84
2023-09-12T11:11:50.055Z,99686.72
2023-09-12T11:14:20.535Z,99693.72
2023-09-12T11:17:09.079Z,99691.25
2023-09-12T11:19:49.062Z,99693.69
2023-09-12T11:22:27.692Z,99688.56
2023-09-12T11:24:57.541Z,99694.81
2023-09-12T11:27:33.366Z,99699.06
2023-09-12T11:30:07.060Z,99698.91
2023-09-12T11:32:37.610Z,99704.97
2023-09-12T11:35:09.285Z,99706.41
2023-09-12T11:37:39.386Z,99707.34
2023-09-12T11:40:42.294Z,99702.78
2023-09-12T11:43:20.961Z,99710.53
2023-09-12T11:45:48.722Z,99711.88
2023-09-12T11:48:15.706Z,99705.47
2023-09-12T11:50:42.905Z,99713.75
2023-09-12T11:53:12.128Z,99702.69
2023-09-12T11:55:50.027Z,99711.56
2023-09-12T11:58:19.303Z,99709.41
2023-09-12T12:00:52.195Z,99707.56
2023-09-12T12:03:21.185Z,99706.97
2023-09-12T12:05:48.786Z,99704.88
2023-09-12T12:10:55.517Z,99718.25
2023-09-12T12:13:23.718Z,99716.50
2023-09-12T12:15:51.427Z,99713.19
2023-09-12T12:18:18.434Z,99711.88
2023-09-12T12:20:45.396Z,99711.25
2023-09-12T12:23:13.727Z,99721.72
2023-09-12T12:25:41.610Z,99718.94
2023-09-12T12:28:08.513Z,99725.44
2023-09-12T12:30:37.374Z,99724.06
2023-09-12T12:33:24.218Z,99727.31
2023-09-12T12:36:09.107Z,99720.28
2023-09-12T12:38:41.743Z,99716.75
2023-09-12T12:41:40.773Z,99720.13
2023-09-12T12:44:12.971Z,99732.41
2023-09-12T12:46:56.092Z,99726.06
2023-09-12T12:49:24.344Z,99730.97
2023-09-12T12:51:51.590Z,99724.84
2023-09-12T12:54:18.477Z,99745.44
2023-09-12T12:56:47.959Z,99735.09
2023-09-12T12:59:14.795Z,99738.53
2023-09-12T13:01:41.664Z,99731.28
2023-09-12T13:04:09.944Z,99734.88
2023-09-12T13:06:37.827Z,99737.38
2023-09-12T13:09:07.045Z,99740.75
2023-09-12T13:11:37.375Z,99736.25
2023-09-12T13:14:12.380Z,99739.19
2023-09-12T13:16:42.820Z,99743.38
2023-09-12T13:19:12.479Z,99743.13
2023-09-12T13:21:39.593Z,99751.06
2023-09-12T13:24:06.644Z,99743.31
2023-09-12T13:26:33.437Z,99742.72
2023-09-12T13:29:00.326Z,99750.88
2023-09-12T13:31:27.612Z,99743.47
2023-09-12T13:33:54.634Z,99752.97
2023-09-12T13:36:21.642Z,99748.25
2023-09-12T13:38:49.775Z,99759.03
2023-09-12T13:41:16.744Z,99759.91
2023-09-12T13:43:46.654Z,99755.50
2023-09-12T13:46:14.152Z,99766.28
2023-09-12T13:48:41.312Z,99763.03
2023-09-12T13:51:08.260Z,99760.91
2023-09-12T13:53:35.724Z,99768.34
2023-09-12T13:56:18.608Z,99763.97
2023-09-12T13:58:50.604Z,99764.03
2023-09-12T14:01:30.002Z,99764.22
2023-09-12T14:04:00.681Z,99770.06
2023-09-12T14:06:29.135Z,99770.34
2023-09-12T14:08:56.326Z,99767.22
2023-09-12T14:11:32.165Z,99769.59
2023-09-12T14:14:15.400Z,99776.81
2023-09-12T14:16:48.229Z,99778.13
2023-09-12T14:19:16.754Z,99781.78
2023-09-12T14:21:46.519Z,99783.59
2023-09-12T14:24:14.123Z,99783.16
2023-09-12T14:26:42.121Z,99785.06
2023-09-12T14:29:09.454Z,99792.53
2023-09-12T14:31:38.381Z,99788.41
2023-09-12T14:34:07.469Z,99789.50
2023-09-12T14:36:34.325Z,99793.38
2023-09-12T14:39:01.262Z,99791.03
2023-09-12T14:41:28.024Z,99800.56
2023-09-12T14:43:54.837Z,99789.03
2023-09-12T14:46:21.732Z,99792.78
2023-09-12T14:48:58.940Z,99795.19
2023-09-12T14:51:32.408Z,99793.78
2023-09-12T14:54:01.281Z,99803.78
2023-09-12T14:56:28.116Z,99806.03
2023-09-12T14:58:55.247Z,99807.97
2023-09-12T15:01:22.233Z,99810.84
2023-09-12T15:03:49.317Z,99806.69
2023-09-12T15:06:16.422Z,99808.50
2023-09-12T15:08:43.217Z,99815.97
2023-09-12T15:11:10.272Z,99812.47
2023-09-12T15:13:37.219Z,99810.19
2023-09-12T15:16:05.797Z,99808.50
2023-09-12T15:18:33.245Z,99817.69
2023-09-12T15:21:00.436Z,99816.84
2023-09-12T15:23:27.263Z,99819.47
2023-09-12T15:25:54.250Z,99830.44
2023-09-12T15:28:21.511Z,99821.78
2023-09-12T15:30:48.349Z,99834.44
2023-09-12T15:33:15.327Z,99833.59
2023-09-12T15:35:42.351Z,99837.81
2023-09-12T15:38:09.388Z,99837.88
2023-09-12T15:40:36.476Z,99831.28
2023-09-12T15:43:18.381Z,99832.91
2023-09-12T15:45:51.639Z,99832.63
2023-09-12T15:48:19.085Z,99843.72
2023-09-12T15:50:46.097Z,99840.97
2023-09-12T15:53:12.931Z,99850.69
2023-09-12T15:55:39.714Z,99859.84
2023-09-12T15:58:06.505Z,99857.31
2023-09-12T16:00:33.558Z,99864.91
2023-09-12T16:03:00.940Z,99864.03
2023-09-12T16:05:27.774Z,99858.84
2023-09-12T16:07:54.707Z,99862.25
2023-09-12T16:10:21.521Z,99864.16
2023-09-12T16:12:48.423Z,99865.50
2023-09-12T16:15:16.046Z,99866.66
2023-09-12T16:17:44.578Z,99874.38
2023-09-12T16:20:15.428Z,99868.81
2023-09-12T16:22:43.144Z,99869.72
2023-09-12T16:25:12.935Z,99870.25
2023-09-12T16:27:39.793Z,99880.19
2023-09-12T16:30:09.924Z,99867.47
2023-09-12T16:32:39.496Z,99872.38
2023-09-12T16:35:07.393Z,99867.44
2023-09-12T16:37:34.448Z,99869.41
2023-09-12T16:40:02.411Z,99871.59
2023-09-12T16:42:31.913Z,99867.13
2023-09-12T16:45:00.913Z,99873.44
2023-09-12T16:47:28.507Z,99860.06
2023-09-12T16:49:57.848Z,99869.00
2023-09-12T16:52:24.710Z,99864.03
2023-09-12T16:54:51.533Z,99853.31
2023-09-12T16:57:18.401Z,99857.75
2023-09-12T16:59:46.378Z,99869.16
2023-09-12T17:02:13.923Z,99875.25
2023-09-12T17:04:44.725Z,99893.28
2023-09-12T17:07:15.278Z,99878.31
2023-09-12T17:09:44.482Z,99880.53
2023-09-12T17:12:11.326Z,99890.75
2023-09-12T17:14:38.156Z,99894.09
2023-09-12T17:17:05.314Z,99889.66
2023-09-12T17:19:32.199Z,99903.50
2023-09-12T17:21:59.115Z,99912.63
2023-09-12T17:24:26.201Z,99905.75
2023-09-12T17:26:55.500Z,99919.00
2023-09-12T17:29:26.563Z,99922.00
2023-09-12T17:31:53.709Z,99927.25
2023-09-12T17:34:21.116Z,99935.53
2023-09-12T17:36:47.919Z,99927.25
2023-09-12T17:39:14.883Z,99926.19
2023-09-12T17:41:41.698Z,99940.50
2023-09-12T17:44:08.475Z,99931.13
2023-09-12T17:46:35.484Z,99936.63
2023-09-12T17:49:02.540Z,99941.34
2023-09-12T17:51:32.108Z,99934.72
2023-09-12T17:53:59.011Z,99946.28
2023-09-12T17:56:25.769Z,99939.94
2023-09-12T17:58:53.323Z,99938.84
2023-09-12T18:01:20.585Z,99952.09
2023-09-12T18:03:48.047Z,99955.69
2023-09-12T18:06:15.766Z,99954.03
2023-09-12T18:08:42.565Z,99960.94
2023-09-12T18:11:09.418Z,99957.63
2023-09-12T18:13:36.222Z,99955.41
2023-09-12T18:16:03.246Z,99967.56
2023-09-12T18:18:30.204Z,99970.03
2023-09-12T18:20:57.799Z,99968.66
2023-09-12T18:23:24.713Z,99969.22
2023-09-12T18:25:52.081Z,99971.97
2023-09-12T18:28:40.018Z,99976.41
2023-09-12T18:31:11.936Z,99991.28
2023-09-12T18:33:39.520Z,99993.22
2023-09-12T18:36:07.838Z,100003.97
2023-09-12T18:38:38.998Z,99998.22
2023-09-12T18:41:06.362Z,100002.31
2023-09-12T18:43:33.245Z,100013.34
2023-09-12T18:46:00.398Z,100012.53
2023-09-12T18:48:28.779Z,100016.41
2023-09-12T18:50:57.464Z,100014.72
2023-09-12T18:53:24.261Z,100021.63
2023-09-12T18:55:51.246Z,100026.31
2023-09-12T18:58:18.422Z,100034.31
2023-09-12T19:00:46.400Z,100043.13
2023-09-12T19:03:17.085Z,100054.72
2023-09-12T19:05:45.179Z,100044.53
2023-09-12T19:08:12.565Z,100061.38
2023-09-12T19:10:39.567Z,100057.78
2023-09-12T19:13:07.204Z,100060.56
2023-09-12T19:15:34.226Z,100078.16
2023-09-12T19:18:01.196Z,100080.06
2023-09-12T19:20:29.099Z,100090.50
2023-09-12T19:22:56.166Z,100090.72
2023-09-12T19:25:23.110Z,100101.47
2023-09-12T19:27:50.500Z,100102.78
2023-09-12T19:30:17.641Z,100108.91
2023-09-12T19:32:47.214Z,100113.25
2023-09-12T19:35:14.177Z,100116.53
2023-09-12T19:37:45.614Z,100120.59
2023-09-12T19:40:16.611Z,100136.00
2023-09-12T19:42:44.170Z,100147.06
2023-09-12T19:45:11.423Z,100146.47
2023-09-12T19:47:46.639Z,100150.34
2023-09-12T19:50:21.788Z,100147.47
2023-09-12T19:52:48.589Z,100151.41
2023-09-12T19:55:15.697Z,100153.56
2023-09-12T19:57:47.216Z,100151.69
2023-09-12T20:00:15.613Z,100152.19
2023-09-12T20:02:45.319Z,100152.53
2023-09-12T20:05:12.594Z,100155.53
2023-09-12T20:07:39.466Z,100155.84
2023-09-12T20:10:06.692Z,100157.72
2023-09-12T20:12:33.804Z,100154.13
2023-09-12T20:15:03.155Z,100154.28
2023-09-12T20:17:29.964Z,100164.31
2023-09-12T20:19:56.829Z,100156.88
2023-09-12T20:22:23.683Z,100151.53
2023-09-12T20:24:50.664Z,100159.31
2023-09-12T20:27:18.122Z,100156.28
2023-09-12T20:29:45.351Z,100151.91
2023-09-12T20:32:13.548Z,100158.97
2023-09-12T20:34:40.367Z,100157.44
2023-09-12T20:37:07.815Z,100155.66
2023-09-12T20:39:35.098Z,100159.81
2023-09-12T20:42:02.868Z,100164.63
2023-09-12T20:44:29.879Z,100168.03
2023-09-12T20:46:59.246Z,100171.56
2023-09-12T20:49:26.900Z,100180.06
2023-09-12T20:51:53.763Z,100184.25
2023-09-12T20:54:26.409Z,100177.91
2023-09-12T20:56:53.383Z,100183.66
2023-09-12T20:59:20.129Z,100190.63
2023-09-12T21:01:47.461Z,100190.91
2023-09-12T21:04:18.285Z,100192.19
2023-09-12T21:06:47.414Z,100192.25
2023-09-12T21:09:16.713Z,100188.94
2023-09-12T21:11:47.527Z,100189.94
2023-09-12T21:14:15.586Z,100191.41
2023-09-12T21:16:42.901Z,100190.31
2023-09-12T21:19:10.038Z,100185.66
2023-09-12T21:21:42.927Z,100196.53
2023-09-12T21:24:12.868Z,100206.81
2023-09-12T21:26:42.318Z,100203.22
2023-09-12T21:29:09.491Z,100207.03
2023-09-12T21:31:40.394Z,100209.00
2023-09-12T21:34:07.801Z,100212.00
2023-09-12T21:36:35.163Z,100216.13
2023-09-12T21:39:04.541Z,100215.31
2023-09-12T21:41:31.764Z,100208.69
2023-09-12T21:43:58.586Z,100223.63
2023-09-12T21:46:26.012Z,100224.72
2023-09-12T21:48:53.043Z,100230.47
2023-09-12T21:51:20.404Z,100225.28
2023-09-12T21:53:51.591Z,100227.88
2023-09-12T21:56:22.507Z,100218.75
2023-09-12T21:58:49.387Z,100223.19
2023-09-12T22:01:19.635Z,100219.06
2023-09-12T22:03:46.900Z,100220.72
2023-09-12T22:06:17.216Z,100225.81
2023-09-12T22:08:44.154Z,100216.22
2023-09-12T22:11:15.342Z,100218.19
2023-09-12T22:13:42.535Z,100220.16
2023-09-12T22:16:09.823Z,100226.75
2023-09-12T22:18:37.024Z,100232.78
2023-09-12T22:21:08.751Z,100221.22
2023-09-12T22:23:35.956Z,100219.78
2023-09-12T22:26:10.823Z,100222.50
2023-09-12T22:28:38.258Z,100219.00
2023-09-12T22:31:12.777Z,100220.53
2023-09-12T22:33:41.234Z,100227.09
2023-09-12T22:36:19.543Z,100230.06
2023-09-12T22:38:49.583Z,100235.91
2023-09-12T22:41:22.079Z,100240.38
2023-09-12T22:43:48.927Z,100239.66
2023-09-12T22:46:15.842Z,100242.31
2023-09-12T22:48:42.771Z,100250.28
2023-09-12T22:51:09.551Z,100251.44
2023-09-12T22:53:36.415Z,100254.00
2023-09-12T22:56:04.101Z,100256.69
2023-09-12T22:58:32.858Z,100263.34
2023-09-12T23:00:59.730Z,100263.03
2023-09-12T23:03:26.595Z,100265.72
2023-09-12T23:05:53.390Z,100267.13
2023-09-12T23:08:20.149Z,100276.41
2023-09-12T23:10:46.937Z,100276.47
2023-09-12T23:13:13.749Z,100277.00
2023-09-12T23:15:40.849Z,100281.88
2023-09-12T23:18:07.803Z,100283.13
2023-09-12T23:20:35.482Z,100292.16
2023-09-12T23:23:02.440Z,100289.34
2023-09-12T23:25:29.245Z,100280.47
2023-09-12T23:27:56.059Z,100293.56
2023-09-12T23:30:22.861Z,100292.09
2023-09-12T23:32:49.637Z,100288.56
2023-09-12T23:35:16.417Z,100285.56
2023-09-12T23:37:43.348Z,100284.06
2023-09-12T23:40:10.903Z,100294.75
2023-09-12T23:42:39.149Z,100300.69
2023-09-12T23:45:06.525Z,100299.03
2023-09-12T23:47:33.397Z,100299.78
2023-09-12T23:50:00.222Z,100302.88
2023-09-12T23:52:28.836Z,100308.63
2023-09-12T23:54:55.795Z,100309.94
2023-09-12T23:57:22.581Z,100318.31
2023-09-12T23:59:49.996Z,100314.28
